Impacts METAR Board
IDs:

KLBX - Angleton/Texas Gulf, TX, US

Updated at: 1400 UTC 13 Dec 2019
Potential Impact None Slight Moderate High
Time 13/02Z 13/03Z 13/04Z 13/05Z 13/06Z 13/07Z 13/08Z 13/09Z 13/10Z 13/11Z 13/12Z 13/13Z 13/14Z
Temp52 52 54 55 56 56 57 56 58 57 56 55 57
Dewpt50 50 52 53 53 52 53 53 53 53 54 53 54
Altim30.13 30.12 30.10 30.09 30.08 30.06 30.04 30.02 30.00 29.97 29.97 29.97 29.99
VIS10 10 10 10 10 10 10 10 10 10 10 10 10
CIG-- 27 35 34 27 38 46 42 36 29 18 33 23
CoverFEWOVCOVCOVCOVCOVCOVCOVCOVCOVCBKNBKNBKN
FltCatVFRMVFRVFRVFRMVFRVFRVFRVFRVFRMVFRMVFRVFRMVFR
WX--------------------------
WDir0035036000000000350
WSpd0 0 3 3 0 0 0 0 0 0 0 0 4
WGst-- -- -- -- -- -- -- -- -- -- -- -- --
Raw hourly METARs
KLBX 130153Z AUTO 00000KT 10SM FEW055 11/10 A3013 RMK AO2 SLP201 T01110100
KLBX 130253Z AUTO 00000KT 10SM SCT020 OVC027 11/10 A3012 RMK AO2 SLP199 T01110100 56001
KLBX 130353Z AUTO 35003KT 10SM OVC035 12/11 A3010 RMK AO2 SLP191 T01220111
KLBX 130453Z AUTO 36003KT 10SM OVC034 13/12 A3009 RMK AO2 SLP190 T01280117
KLBX 130553Z AUTO 00000KT 10SM BKN027 OVC038 13/12 A3008 RMK AO2 SLP186 T01330117 10144 20106 401780083 56013
KLBX 130653Z AUTO 00000KT 10SM SCT030 OVC038 13/11 A3006 RMK AO2 SLP179 T01330111
KLBX 130753Z AUTO 00000KT 10SM FEW028 SCT034 OVC046 14/12 A3004 RMK AO2 SLP173 T01390117
KLBX 130853Z AUTO 00000KT 10SM BKN042 OVC055 13/12 A3002 RMK AO2 SLP166 T01330117 58020
KLBX 130953Z AUTO 00000KT 10SM BKN036 OVC046 14/12 A3000 RMK AO2 SLP157 T01440117
KLBX 131104Z AUTO 00000KT 10SM BKN029 OVC035 14/12 A2997 RMK AO2 T01390117
KLBX 131153Z AUTO 00000KT 10SM BKN018 BKN025 13/12 A2997 RMK AO2 SLP147 T01330122 10144 20133 56019
KLBX 131253Z AUTO 00000KT 10SM FEW026 BKN033 13/12 A2997 RMK AO2 SLP149 T01280117
KLBX 131353Z AUTO 35004KT 10SM BKN023 14/12 A2999 RMK AO2 SLP153 T01390122



Page loaded:  14:01 UTC  |   06:01 AM Pacific  |   07:01 AM Mountain  |   08:01 AM Central  |   09:01 AM Eastern

 

ADVISORIES

FORECASTS

FORECASTS

OBSERVATIONS

USER TOOLS

ABOUT US